createdAt,value
2018-06-21T00:00:18.624Z,97.80
2018-06-21T00:02:46.477Z,98.00
2018-06-21T00:05:14.341Z,98.00
2018-06-21T00:07:42.201Z,98.40
2018-06-21T00:10:10.124Z,98.50
2018-06-21T00:12:37.954Z,98.60
2018-06-21T00:15:05.837Z,98.70
2018-06-21T00:17:33.717Z,98.60
2018-06-21T00:20:01.589Z,98.80
2018-06-21T00:22:29.490Z,98.80
2018-06-21T00:24:57.348Z,98.70
2018-06-21T00:27:25.208Z,98.30
2018-06-21T00:29:53.045Z,98.30
2018-06-21T00:32:20.895Z,98.10
2018-06-21T00:34:48.732Z,98.10
2018-06-21T00:42:09.119Z,98.80
2018-06-21T00:44:37.016Z,98.70
2018-06-21T00:47:10.888Z,99.00
2018-06-21T00:49:44.768Z,98.80
2018-06-21T00:52:12.623Z,98.70
2018-06-21T00:54:40.464Z,98.60
2018-06-21T00:57:08.424Z,98.70
2018-06-21T00:59:37.351Z,98.50
2018-06-21T01:02:05.227Z,98.30
2018-06-21T01:04:33.135Z,98.30
2018-06-21T01:07:01.026Z,98.40
2018-06-21T01:09:29.236Z,98.70
2018-06-21T01:11:57.328Z,98.60
2018-06-21T01:14:25.286Z,98.40
2018-06-21T01:16:53.291Z,98.20
2018-06-21T01:19:21.268Z,98.20
2018-06-21T01:21:49.258Z,98.10
2018-06-21T01:24:17.184Z,98.10
2018-06-21T01:26:46.115Z,98.20
2018-06-21T01:29:14.092Z,97.90
2018-06-21T01:31:42.180Z,98.10
2018-06-21T01:34:10.096Z,97.80
2018-06-21T01:36:38.682Z,97.90
2018-06-21T01:39:07.755Z,98.20
2018-06-21T01:41:35.751Z,98.10
2018-06-21T01:44:03.748Z,98.50
2018-06-21T01:49:04.182Z,98.30
2018-06-21T01:51:58.263Z,98.20
2018-06-21T01:54:26.152Z,98.30
2018-06-21T01:56:54.040Z,98.30
2018-06-21T01:59:21.880Z,98.40
2018-06-21T02:01:49.715Z,98.40
2018-06-21T02:04:17.547Z,98.60
2018-06-21T02:06:45.423Z,98.30
2018-06-21T02:09:13.245Z,98.60
2018-06-21T02:11:41.082Z,98.40
2018-06-21T02:14:08.921Z,98.40
2018-06-21T02:16:36.771Z,98.40
2018-06-21T02:19:05.604Z,98.40
2018-06-21T02:21:33.402Z,98.60
2018-06-21T02:24:01.255Z,98.40
2018-06-21T02:26:30.077Z,98.40
2018-06-21T02:28:57.941Z,98.50
2018-06-21T02:31:25.791Z,98.40
2018-06-21T02:33:53.726Z,98.50
2018-06-21T02:36:21.551Z,98.60
2018-06-21T02:38:49.355Z,98.70
2018-06-21T02:41:17.184Z,98.70
2018-06-21T02:43:51.016Z,98.80
2018-06-21T02:46:25.951Z,98.90
2018-06-21T02:48:53.751Z,99.10
2018-06-21T02:51:21.601Z,99.10
2018-06-21T02:54:06.188Z,99.30
2018-06-21T02:58:59.418Z,99.60
2018-06-21T03:01:27.536Z,99.60
2018-06-21T03:03:55.448Z,99.90
2018-06-21T03:06:23.471Z,99.80
2018-06-21T03:08:51.292Z,99.60
2018-06-21T03:11:19.158Z,99.60
2018-06-21T03:13:46.981Z,99.30
2018-06-21T03:16:14.807Z,99.40
2018-06-21T03:18:42.604Z,98.90
2018-06-21T03:21:11.394Z,99.40
2018-06-21T03:23:39.193Z,99.20
2018-06-21T03:26:07.011Z,99.20
2018-06-21T03:28:34.823Z,99.10
2018-06-21T03:31:02.697Z,98.90
2018-06-21T03:33:30.536Z,98.90
2018-06-21T03:37:28.899Z,98.90
2018-06-21T03:39:56.694Z,98.90
2018-06-21T03:42:24.522Z,98.20
2018-06-21T03:44:52.320Z,98.10
2018-06-21T03:47:20.117Z,98.10
2018-06-21T03:49:47.949Z,98.00
2018-06-21T03:52:15.829Z,98.10
2018-06-21T03:54:43.626Z,98.20
2018-06-21T03:57:11.428Z,98.10
2018-06-21T03:59:39.402Z,98.00
2018-06-21T04:04:32.815Z,97.70
2018-06-21T04:07:00.898Z,97.60
2018-06-21T04:09:28.878Z,97.40
2018-06-21T04:14:22.139Z,97.50
2018-06-21T04:16:49.950Z,97.10
2018-06-21T04:19:17.794Z,97.20
2018-06-21T04:21:45.585Z,97.10
2018-06-21T04:24:13.400Z,96.90
2018-06-21T04:26:41.253Z,96.80
2018-06-21T04:29:09.052Z,96.50
2018-06-21T04:31:36.869Z,96.50
2018-06-21T04:34:04.702Z,95.90
2018-06-21T04:36:38.584Z,95.40
2018-06-21T04:39:12.347Z,95.20
2018-06-21T04:41:40.177Z,95.00
2018-06-21T04:44:07.958Z,95.00
2018-06-21T04:46:35.756Z,94.60
2018-06-21T04:49:03.625Z,94.50
2018-06-21T04:51:31.452Z,94.50
2018-06-21T04:53:59.442Z,94.20
2018-06-21T04:56:27.284Z,94.60
2018-06-21T04:58:55.087Z,94.40
2018-06-21T05:01:22.913Z,94.00
2018-06-21T05:03:50.755Z,94.00
2018-06-21T05:06:18.807Z,93.90
2018-06-21T05:08:46.787Z,93.70
2018-06-21T05:11:14.706Z,93.20
2018-06-21T05:13:42.700Z,92.80
2018-06-21T05:16:10.696Z,92.70
2018-06-21T05:18:38.718Z,92.40
2018-06-21T05:21:06.730Z,92.00
2018-06-21T05:23:34.762Z,92.10
2018-06-21T05:26:02.729Z,92.00
2018-06-21T05:28:30.679Z,92.20
2018-06-21T05:30:58.507Z,92.20
2018-06-21T05:33:26.227Z,92.10
2018-06-21T05:35:54.007Z,92.00
2018-06-21T05:38:22.758Z,91.60
2018-06-21T05:40:50.462Z,91.50
2018-06-21T05:43:18.179Z,91.30
2018-06-21T05:45:45.933Z,91.30
2018-06-21T05:48:13.649Z,91.00
2018-06-21T05:50:41.369Z,91.20
2018-06-21T05:53:09.196Z,91.10
2018-06-21T05:55:36.936Z,90.90
2018-06-21T05:58:05.691Z,91.20
2018-06-21T06:00:33.476Z,90.60
2018-06-21T06:03:01.216Z,90.80
2018-06-21T06:05:28.919Z,90.90
2018-06-21T06:07:56.707Z,90.90
2018-06-21T06:10:40.882Z,89.80
2018-06-21T06:13:08.820Z,88.50
2018-06-21T06:15:36.734Z,82.80
2018-06-21T06:18:05.571Z,80.90
2018-06-21T06:20:33.420Z,78.60
2018-06-21T06:23:01.156Z,78.60
2018-06-21T06:25:28.929Z,78.70
2018-06-21T06:27:56.697Z,79.80
2018-06-21T06:30:24.463Z,79.40
2018-06-21T06:32:52.220Z,78.20
2018-06-21T06:35:20.048Z,77.40
2018-06-21T06:37:47.801Z,75.20
2018-06-21T06:40:15.567Z,75.10
2018-06-21T06:42:43.310Z,76.00
2018-06-21T06:45:11.067Z,73.90
2018-06-21T06:47:38.778Z,72.90
2018-06-21T06:50:06.553Z,72.70
2018-06-21T06:52:34.315Z,72.00
2018-06-21T06:55:02.076Z,67.50
2018-06-21T06:57:29.804Z,67.00
2018-06-21T06:59:57.669Z,68.40
2018-06-21T07:02:25.481Z,68.90
2018-06-21T07:04:53.207Z,70.20
2018-06-21T07:07:20.994Z,71.70
2018-06-21T07:09:48.756Z,72.30
2018-06-21T07:12:16.537Z,72.40
2018-06-21T07:15:12.195Z,70.50
2018-06-21T07:17:40.299Z,68.90
2018-06-21T07:20:08.200Z,69.30
2018-06-21T07:22:36.122Z,68.90
2018-06-21T07:25:03.991Z,70.10
2018-06-21T07:27:32.962Z,67.90
2018-06-21T07:32:29.554Z,69.30
2018-06-21T07:34:57.374Z,69.30
2018-06-21T07:37:25.125Z,70.00
2018-06-21T07:39:52.968Z,72.60
2018-06-21T07:42:20.711Z,74.80
2018-06-21T07:44:48.453Z,77.40
2018-06-21T07:47:16.208Z,79.10
2018-06-21T07:49:43.931Z,79.10
2018-06-21T07:52:11.703Z,78.50
2018-06-21T07:54:39.450Z,75.40
2018-06-21T07:57:07.170Z,74.30
2018-06-21T07:59:35.801Z,75.80
2018-06-21T08:02:03.687Z,76.70
2018-06-21T08:04:31.451Z,73.50
2018-06-21T08:06:59.204Z,72.90
2018-06-21T08:09:27.953Z,72.90
2018-06-21T08:11:55.682Z,70.90
2018-06-21T08:14:23.413Z,67.90
2018-06-21T08:16:51.322Z,62.50
2018-06-21T08:19:20.525Z,64.20
2018-06-21T08:21:48.500Z,64.20
2018-06-21T08:24:16.448Z,66.90
2018-06-21T08:26:44.314Z,64.00
2018-06-21T08:29:12.040Z,64.20
2018-06-21T08:31:39.953Z,65.00
2018-06-21T08:34:07.714Z,65.60
2018-06-21T08:36:35.628Z,66.60
2018-06-21T08:39:05.121Z,68.90
2018-06-21T08:41:33.739Z,68.70
2018-06-21T08:44:01.492Z,68.10
2018-06-21T08:46:29.352Z,68.80
2018-06-21T08:48:57.140Z,68.10
2018-06-21T08:51:24.907Z,68.10
2018-06-21T08:53:52.859Z,66.80
2018-06-21T08:56:20.650Z,66.30
2018-06-21T08:58:48.624Z,66.00
2018-06-21T09:01:16.357Z,66.70
2018-06-21T09:03:44.165Z,65.80
2018-06-21T09:06:12.060Z,65.50
2018-06-21T09:08:39.832Z,67.00
2018-06-21T09:11:08.602Z,67.50
2018-06-21T09:13:37.222Z,69.70
2018-06-21T09:16:06.485Z,68.40
2018-06-21T09:18:34.265Z,68.10
2018-06-21T09:21:02.228Z,68.20
2018-06-21T09:26:17.611Z,68.70
2018-06-21T09:28:45.475Z,64.70
2018-06-21T09:31:13.341Z,65.90
2018-06-21T09:33:42.523Z,65.20
2018-06-21T09:36:10.433Z,65.10
2018-06-21T09:38:43.889Z,64.80
2018-06-21T09:41:17.246Z,64.80
2018-06-21T09:44:03.823Z,64.60
2018-06-21T09:46:33.877Z,65.00
2018-06-21T09:48:54.329Z,63.40
2018-06-21T09:51:22.652Z,65.50
2018-06-21T09:53:50.554Z,66.20
2018-06-21T09:56:18.426Z,65.50
2018-06-21T09:58:46.317Z,64.50
2018-06-21T10:01:14.697Z,65.90
2018-06-21T10:03:42.743Z,67.00
2018-06-21T10:06:10.710Z,64.90
2018-06-21T10:08:38.664Z,65.50
2018-06-21T10:11:06.691Z,65.70
2018-06-21T10:13:34.644Z,65.90
2018-06-21T10:16:02.646Z,67.00
2018-06-21T10:18:31.532Z,66.30
2018-06-21T10:20:59.435Z,66.70
2018-06-21T10:23:27.345Z,66.40
2018-06-21T10:25:55.285Z,66.70
2018-06-21T10:28:23.206Z,65.20
2018-06-21T10:30:51.166Z,62.90
2018-06-21T10:33:18.917Z,59.90
2018-06-21T10:35:46.823Z,59.60
2018-06-21T10:38:14.565Z,60.80
2018-06-21T10:40:42.344Z,60.00
2018-06-21T10:43:10.158Z,61.10
2018-06-21T10:45:38.063Z,62.10
2018-06-21T10:48:05.828Z,63.70
2018-06-21T10:50:33.637Z,62.50
2018-06-21T10:53:01.420Z,61.80
2018-06-21T10:55:29.359Z,59.40
2018-06-21T10:57:57.135Z,57.70
2018-06-21T11:00:25.083Z,59.00
2018-06-21T11:02:52.935Z,58.20
2018-06-21T11:05:20.710Z,59.10
2018-06-21T11:07:48.463Z,59.50
2018-06-21T11:10:16.237Z,58.80
2018-06-21T11:12:44.021Z,62.60
2018-06-21T11:15:12.828Z,65.50
2018-06-21T11:17:40.669Z,66.20
2018-06-21T11:20:08.446Z,63.10
2018-06-21T11:22:36.184Z,62.00
2018-06-21T11:25:03.982Z,62.50
2018-06-21T11:27:31.815Z,62.40
2018-06-21T11:29:59.579Z,63.30
2018-06-21T11:32:28.000Z,65.20
2018-06-21T11:35:06.706Z,62.80
2018-06-21T11:37:34.638Z,63.70
2018-06-21T11:40:02.563Z,65.80
2018-06-21T11:42:31.445Z,63.60
2018-06-21T11:44:59.338Z,62.20
2018-06-21T11:47:27.170Z,61.70
2018-06-21T11:49:55.053Z,59.30
2018-06-21T11:52:22.891Z,58.40
2018-06-21T11:54:50.758Z,60.40
2018-06-21T11:57:18.589Z,61.60
2018-06-21T11:59:46.401Z,59.40
2018-06-21T12:02:14.230Z,56.70
2018-06-21T12:04:43.486Z,57.30
2018-06-21T12:07:11.352Z,56.30
2018-06-21T12:09:39.123Z,56.90
2018-06-21T12:12:07.001Z,55.50
2018-06-21T12:14:35.691Z,55.90
2018-06-21T12:17:03.524Z,54.50
2018-06-21T12:19:31.348Z,56.30
2018-06-21T12:21:59.187Z,56.10
2018-06-21T12:24:26.977Z,57.00
2018-06-21T12:26:54.733Z,55.90
2018-06-21T12:29:22.528Z,55.50
2018-06-21T12:31:51.314Z,56.40
2018-06-21T12:34:19.107Z,54.80
2018-06-21T12:36:46.955Z,55.80
2018-06-21T12:39:14.746Z,54.40
2018-06-21T12:41:42.665Z,54.30
2018-06-21T12:44:11.611Z,54.40
2018-06-21T12:46:46.855Z,55.40
2018-06-21T12:49:14.835Z,55.70
2018-06-21T12:51:42.704Z,54.10
2018-06-21T12:54:13.804Z,55.80
2018-06-21T12:56:41.817Z,55.20
2018-06-21T12:59:09.736Z,54.20
2018-06-21T13:01:37.731Z,56.10
2018-06-21T13:04:05.540Z,58.20
2018-06-21T13:06:33.357Z,58.30
2018-06-21T13:09:12.449Z,60.00
2018-06-21T13:13:49.530Z,57.70
2018-06-21T13:16:18.564Z,56.20
2018-06-21T13:18:46.352Z,56.00
2018-06-21T13:21:14.105Z,57.50
2018-06-21T13:23:41.869Z,60.30
2018-06-21T13:26:09.775Z,60.20
2018-06-21T13:28:37.549Z,60.00
2018-06-21T13:31:05.318Z,60.80
2018-06-21T13:33:33.113Z,59.10
2018-06-21T13:36:00.856Z,60.30
2018-06-21T13:38:28.599Z,60.00
2018-06-21T13:40:56.390Z,59.60
2018-06-21T13:43:24.172Z,59.50
2018-06-21T13:45:52.093Z,57.40
2018-06-21T13:48:21.032Z,57.30
2018-06-21T13:51:02.198Z,57.10
2018-06-21T13:53:30.093Z,57.00
2018-06-21T13:56:02.558Z,55.30
2018-06-21T13:58:30.408Z,54.00
2018-06-21T14:00:58.465Z,54.70
2018-06-21T14:03:40.543Z,56.60
2018-06-21T14:06:08.358Z,60.00
2018-06-21T14:08:36.500Z,60.90
2018-06-21T14:11:03.987Z,59.30
2018-06-21T14:13:31.782Z,60.80
2018-06-21T14:15:59.586Z,62.60
2018-06-21T14:18:28.356Z,64.60
2018-06-21T14:20:56.214Z,65.80
2018-06-21T14:23:23.933Z,67.50
2018-06-21T14:25:51.766Z,68.00
2018-06-21T14:28:19.526Z,67.80
2018-06-21T14:30:47.318Z,68.90
2018-06-21T14:33:16.095Z,70.80
2018-06-21T14:35:43.881Z,72.00
2018-06-21T14:38:12.203Z,72.50
2018-06-21T14:40:40.010Z,73.00
2018-06-21T14:43:07.854Z,74.40
2018-06-21T14:45:35.695Z,78.20
2018-06-21T14:48:03.633Z,79.30
2018-06-21T14:50:31.329Z,81.00
2018-06-21T14:52:59.271Z,80.30
2018-06-21T14:55:27.293Z,80.50
2018-06-21T14:57:55.171Z,78.20
2018-06-21T15:00:23.192Z,78.90
2018-06-21T15:02:51.110Z,78.70
2018-06-21T15:05:19.147Z,75.80
2018-06-21T15:07:47.025Z,74.10
2018-06-21T15:10:14.959Z,73.60
2018-06-21T15:12:43.038Z,72.00
2018-06-21T15:15:11.152Z,72.50
2018-06-21T15:17:39.065Z,72.90
2018-06-21T15:20:07.203Z,71.30
2018-06-21T15:22:35.135Z,71.80
2018-06-21T15:25:03.226Z,72.80
2018-06-21T15:27:31.210Z,73.30
2018-06-21T15:29:59.376Z,71.60
2018-06-21T15:32:27.274Z,70.80
2018-06-21T15:34:55.393Z,67.70
2018-06-21T15:37:23.302Z,64.30
2018-06-21T15:39:51.304Z,63.10
2018-06-21T15:44:46.428Z,66.80
2018-06-21T15:47:14.263Z,67.70
2018-06-21T15:49:42.024Z,69.50
2018-06-21T15:52:09.803Z,69.90
2018-06-21T15:54:37.566Z,69.10
2018-06-21T15:57:05.333Z,68.30
2018-06-21T16:02:05.977Z,62.20
2018-06-21T16:04:33.926Z,61.00
2018-06-21T16:07:03.188Z,60.70
2018-06-21T16:09:39.223Z,61.90
2018-06-21T16:12:07.210Z,63.70
2018-06-21T16:14:35.296Z,67.10
2018-06-21T16:17:03.228Z,68.30
2018-06-21T16:19:31.318Z,69.00
2018-06-21T16:21:59.187Z,69.90
2018-06-21T16:24:26.833Z,69.20
2018-06-21T16:26:54.679Z,66.80
2018-06-21T16:29:22.508Z,66.00
2018-06-21T16:31:50.457Z,66.70
2018-06-21T16:34:18.201Z,63.90
2018-06-21T16:36:46.520Z,62.80
2018-06-21T16:39:14.380Z,62.10
2018-06-21T16:41:43.258Z,63.40
2018-06-21T16:44:11.060Z,65.60
2018-06-21T16:46:38.878Z,64.50
2018-06-21T16:49:06.757Z,61.10
2018-06-21T16:51:34.511Z,60.90
2018-06-21T16:54:02.314Z,62.50
2018-06-21T16:56:30.069Z,63.00
2018-06-21T16:58:57.886Z,61.20
2018-06-21T17:01:25.639Z,61.90
2018-06-21T17:06:18.821Z,65.00
2018-06-21T17:08:50.648Z,67.10
2018-06-21T17:11:29.340Z,68.90
2018-06-21T17:16:27.520Z,68.40
2018-06-21T17:18:55.340Z,69.10
2018-06-21T17:21:23.458Z,69.20
2018-06-21T17:23:51.203Z,70.20
2018-06-21T17:26:19.055Z,67.70
2018-06-21T17:28:46.803Z,69.30
2018-06-21T17:31:14.569Z,71.50
2018-06-21T17:33:42.336Z,71.80
2018-06-21T17:36:10.174Z,72.30
2018-06-21T17:38:37.943Z,72.30
2018-06-21T17:41:05.706Z,72.60
2018-06-21T17:43:33.452Z,73.40
2018-06-21T17:46:01.216Z,73.30
2018-06-21T17:48:28.991Z,73.50
2018-06-21T17:50:56.749Z,72.80
2018-06-21T17:53:24.492Z,73.00
2018-06-21T17:55:52.258Z,72.20
2018-06-21T17:58:20.041Z,72.40
2018-06-21T18:00:48.959Z,73.30
2018-06-21T18:03:20.433Z,71.60
2018-06-21T18:05:48.292Z,70.70
2018-06-21T18:08:16.133Z,69.10
2018-06-21T18:10:43.949Z,68.00
2018-06-21T18:13:11.763Z,69.10
2018-06-21T18:15:39.534Z,69.20
2018-06-21T18:18:07.410Z,71.30
2018-06-21T18:20:35.249Z,73.20
2018-06-21T18:23:03.011Z,71.40
2018-06-21T18:25:30.934Z,69.80
2018-06-21T18:27:59.576Z,68.30
2018-06-21T18:30:27.410Z,70.20
2018-06-21T18:32:55.246Z,72.20
2018-06-21T18:35:23.234Z,70.70
2018-06-21T18:37:51.115Z,71.60
2018-06-21T18:40:18.958Z,73.30
2018-06-21T18:42:46.744Z,74.50
2018-06-21T18:45:14.552Z,75.10
2018-06-21T18:47:42.335Z,76.30
2018-06-21T18:50:10.172Z,76.70
2018-06-21T18:52:38.006Z,77.00
2018-06-21T18:55:05.815Z,76.20
2018-06-21T18:57:33.615Z,75.00
2018-06-21T19:00:01.379Z,75.10
2018-06-21T19:02:29.296Z,75.60
2018-06-21T19:04:57.089Z,75.60
2018-06-21T19:07:30.590Z,75.80
2018-06-21T19:10:04.153Z,76.80
2018-06-21T19:12:32.231Z,77.20
2018-06-21T19:15:12.354Z,76.00
2018-06-21T19:17:40.421Z,76.10
2018-06-21T19:20:08.459Z,76.30
2018-06-21T19:22:36.490Z,77.10
2018-06-21T19:25:04.584Z,77.70
2018-06-21T19:27:46.289Z,77.90
2018-06-21T19:32:39.520Z,78.90
2018-06-21T19:35:07.321Z,79.50
2018-06-21T19:37:35.115Z,80.20
2018-06-21T19:40:03.239Z,80.60
2018-06-21T19:42:32.218Z,79.90
2018-06-21T19:45:00.157Z,79.70
2018-06-21T19:47:27.923Z,80.10
2018-06-21T19:49:56.030Z,80.80
2018-06-21T19:52:23.852Z,81.30
2018-06-21T19:54:51.823Z,81.70
2018-06-21T19:57:19.817Z,81.90
2018-06-21T19:59:47.757Z,81.80
2018-06-21T20:02:15.564Z,82.00
2018-06-21T20:04:43.467Z,82.50
2018-06-21T20:07:11.309Z,82.90
2018-06-21T20:09:39.223Z,83.30
2018-06-21T20:12:07.220Z,82.80
2018-06-21T20:14:40.677Z,82.80
2018-06-21T20:17:08.682Z,82.60
2018-06-21T20:20:18.407Z,81.80
2018-06-21T20:22:49.989Z,82.10
2018-06-21T20:25:19.011Z,82.60
2018-06-21T20:27:46.994Z,83.40
2018-06-21T20:30:14.951Z,83.90
2018-06-21T20:32:42.851Z,84.30
2018-06-21T20:37:36.287Z,84.80
2018-06-21T20:40:07.985Z,85.00
2018-06-21T20:42:37.550Z,85.80
2018-06-21T20:45:05.506Z,86.00
2018-06-21T20:47:33.334Z,86.90
2018-06-21T20:50:01.120Z,86.70
2018-06-21T20:52:29.892Z,87.40
2018-06-21T20:54:58.810Z,87.70
2018-06-21T20:57:27.553Z,88.00
2018-06-21T20:59:55.431Z,88.80
2018-06-21T21:02:23.326Z,88.60
2018-06-21T21:05:09.036Z,89.50
2018-06-21T21:07:37.430Z,90.30
2018-06-21T21:10:09.624Z,90.60
2018-06-21T21:12:37.622Z,90.10
2018-06-21T21:15:06.276Z,89.90
2018-06-21T21:18:01.094Z,90.40
2018-06-21T21:20:29.176Z,89.70
2018-06-21T21:22:57.022Z,91.00
2018-06-21T21:25:24.871Z,91.10
2018-06-21T21:27:52.632Z,91.90
2018-06-21T21:30:20.506Z,92.10
2018-06-21T21:32:48.239Z,92.10
2018-06-21T21:35:16.163Z,92.40
2018-06-21T21:37:44.010Z,92.50
2018-06-21T21:40:11.960Z,92.20
2018-06-21T21:42:39.717Z,92.00
2018-06-21T21:45:07.553Z,92.80
2018-06-21T21:47:35.337Z,92.40
2018-06-21T21:50:03.296Z,92.40
2018-06-21T21:52:31.070Z,92.20
2018-06-21T21:54:58.830Z,92.40
2018-06-21T21:57:26.727Z,92.60
2018-06-21T21:59:54.456Z,93.20
2018-06-21T22:02:22.218Z,92.70
2018-06-21T22:04:49.986Z,93.00
2018-06-21T22:07:17.879Z,93.30
2018-06-21T22:09:45.650Z,93.20
2018-06-21T22:12:13.571Z,94.10
2018-06-21T22:14:41.363Z,93.70
2018-06-21T22:17:09.234Z,93.40
2018-06-21T22:19:37.013Z,93.60
2018-06-21T22:22:25.685Z,93.10
2018-06-21T22:24:53.551Z,93.10
2018-06-21T22:27:29.198Z,92.90
2018-06-21T22:29:57.104Z,93.40
2018-06-21T22:32:25.037Z,93.00
2018-06-21T22:34:52.859Z,93.20
2018-06-21T22:37:20.728Z,93.20
2018-06-21T22:39:48.444Z,93.00
2018-06-21T22:42:16.258Z,92.60
2018-06-21T22:44:44.057Z,93.20
2018-06-21T22:47:12.950Z,93.20
2018-06-21T22:49:40.677Z,94.00
2018-06-21T22:52:08.542Z,93.30
2018-06-21T22:54:36.252Z,93.60
2018-06-21T22:57:04.012Z,93.40
2018-06-21T22:59:31.791Z,93.30
2018-06-21T23:01:59.583Z,93.60
2018-06-21T23:04:27.330Z,94.10
2018-06-21T23:06:55.069Z,94.00
2018-06-21T23:09:22.851Z,93.60
2018-06-21T23:11:50.561Z,93.50
2018-06-21T23:14:18.366Z,93.90
2018-06-21T23:16:46.090Z,93.80
2018-06-21T23:19:23.449Z,94.10
2018-06-21T23:21:51.203Z,93.60
2018-06-21T23:24:18.948Z,93.90
2018-06-21T23:26:46.693Z,94.30
2018-06-21T23:29:24.208Z,93.90
2018-06-21T23:31:52.194Z,94.10
2018-06-21T23:34:30.117Z,94.20
2018-06-21T23:36:57.946Z,93.80
2018-06-21T23:39:25.764Z,93.90
2018-06-21T23:41:53.602Z,94.00
2018-06-21T23:44:21.362Z,93.60
2018-06-21T23:46:49.168Z,94.20
2018-06-21T23:49:16.913Z,94.10
2018-06-21T23:51:44.762Z,94.10
2018-06-21T23:54:13.326Z,94.10
2018-06-21T23:56:42.045Z,94.40
2018-06-21T23:59:09.784Z,94.00
